Time;durP1;ratioP1;P1;durP2;ratioP2;P2;SDS_P1;SDS_P2;PMS_P1;PMS_P2;Temp;Humidity;BMP_temperature;BMP_pressure;BME280_temperature;BME280_humidity;BME280_pressure;Samples;Min_cycle;Max_cycle;Signal;HPM_P1;HPM_P2
2023/01/21 00:01:55;;;;;;;5.85;3.67;;;;;;;10.36;69.93;100444.28;5010748;28;20026;-81
2023/01/21 00:04:20;;;;;;;4.45;2.97;;;;;;;10.21;69.56;100434.81;5010096;28;20026;-82
2023/01/21 00:06:46;;;;;;;4.55;2.97;;;;;;;10.20;70.26;100449.22;5010470;28;20022;-82
2023/01/21 00:09:11;;;;;;;4.78;3.53;;;;;;;10.04;71.53;100448.75;5013857;28;20130;-82
2023/01/21 00:11:36;;;;;;;5.28;3.30;;;;;;;9.95;71.44;100444.13;5017210;28;20471;-83
2023/01/21 00:14:02;;;;;;;7.07;3.20;;;;;;;9.99;70.95;100457.19;5017586;28;20037;-82
2023/01/21 00:16:27;;;;;;;6.70;3.60;;;;;;;9.95;71.14;100461.09;5009961;28;20100;-81
2023/01/21 00:18:55;;;;;;;8.25;3.40;;;;;;;9.93;71.21;100476.50;5010046;28;20029;-82
2023/01/21 00:21:20;;;;;;;4.95;3.45;;;;;;;9.87;71.24;100479.69;5010651;28;20848;-82
2023/01/21 00:23:46;;;;;;;7.13;4.30;;;;;;;9.71;71.31;100474.69;5010327;28;20032;-82
2023/01/21 00:26:11;;;;;;;7.00;4.63;;;;;;;9.68;71.54;100468.69;5009790;28;20508;-81
2023/01/21 00:28:37;;;;;;;13.15;4.85;;;;;;;9.71;71.22;100473.81;5010258;28;20038;-83
2023/01/21 00:31:05;;;;;;;10.73;5.32;;;;;;;9.71;71.17;100477.38;5010273;28;20112;-81
2023/01/21 00:33:32;;;;;;;10.73;6.63;;;;;;;9.62;71.06;100464.69;5011908;28;20540;-81
2023/01/21 00:35:57;;;;;;;15.45;8.35;;;;;;;9.60;71.42;100488.09;5013678;28;20037;-82
2023/01/21 00:38:23;;;;;;;14.25;9.05;;;;;;;9.59;71.28;100494.47;5012309;28;20042;-82
2023/01/21 00:40:48;;;;;;;17.17;10.38;;;;;;;9.57;71.95;100487.50;5013387;28;20026;-82
2023/01/21 00:43:14;;;;;;;18.48;12.38;;;;;;;9.60;71.56;100480.03;5013154;28;20026;-83
2023/01/21 00:45:40;;;;;;;29.50;13.48;;;;;;;9.62;71.77;100488.84;5034798;28;20115;-81
2023/01/21 00:48:05;;;;;;;28.02;16.67;;;;;;;9.59;71.91;100483.72;5033107;28;20060;-82
2023/01/21 00:50:31;;;;;;;27.75;17.38;;;;;;;9.65;71.90;100493.13;5032667;28;20069;-81
2023/01/21 00:52:56;;;;;;;31.85;20.15;;;;;;;9.53;72.10;100486.91;5015145;28;20036;-81
2023/01/21 00:55:22;;;;;;;33.53;21.00;;;;;;;9.62;71.87;100494.22;5033456;28;20025;-81
2023/01/21 00:57:48;;;;;;;37.03;22.55;;;;;;;9.70;71.69;100494.44;5034038;28;20034;-81
2023/01/21 01:00:14;;;;;;;36.97;22.65;;;;;;;9.60;71.66;100471.16;5032760;28;20034;-81
2023/01/21 01:02:40;;;;;;;35.45;20.75;;;;;;;9.53;71.55;100449.31;5032980;28;20033;-83
2023/01/21 01:05:07;;;;;;;44.22;22.45;;;;;;;9.64;71.52;100473.47;5034042;28;20025;-81
2023/01/21 01:07:33;;;;;;;43.00;23.75;;;;;;;9.40;71.63;100472.72;5033499;28;20747;-81
2023/01/21 01:09:58;;;;;;;37.55;22.80;;;;;;;9.35;72.38;100480.28;5033781;28;20026;-81
2023/01/21 01:12:24;;;;;;;43.47;21.30;;;;;;;9.34;72.67;100470.53;5036320;28;20087;-81
2023/01/21 01:14:49;;;;;;;32.30;21.00;;;;;;;9.45;72.52;100478.56;5042152;28;20033;-82
2023/01/21 01:17:15;;;;;;;34.22;21.33;;;;;;;9.54;72.38;100483.22;5033782;28;20022;-83
2023/01/21 01:19:40;;;;;;;34.92;20.42;;;;;;;9.58;71.88;100484.69;5031995;28;20030;-81
2023/01/21 01:22:06;;;;;;;40.22;19.95;;;;;;;9.65;71.51;100485.06;5032011;28;20057;-80
2023/01/21 01:24:31;;;;;;;32.95;17.88;;;;;;;9.65;71.39;100493.13;5031845;28;20033;-81
2023/01/21 01:26:57;;;;;;;31.85;17.08;;;;;;;9.59;71.21;100491.78;5030264;28;20041;-85
2023/01/21 01:29:22;;;;;;;26.83;17.42;;;;;;;9.67;71.24;100499.22;5032016;28;20087;-81
2023/01/21 01:31:48;;;;;;;27.40;14.10;;;;;;;9.59;71.19;100493.59;5032344;28;20032;-81
2023/01/21 01:34:13;;;;;;;23.83;13.95;;;;;;;9.58;71.01;100490.06;5031920;28;20033;-81
2023/01/21 01:36:39;;;;;;;23.40;13.73;;;;;;;9.60;71.03;100493.47;5031782;28;20140;-82
2023/01/21 01:39:04;;;;;;;20.35;13.48;;;;;;;9.58;71.10;100495.44;5013777;28;20029;-81
2023/01/21 01:41:33;;;;;;;22.73;13.85;;;;;;;9.50;71.69;100492.50;5031092;28;20029;-80
2023/01/21 01:44:04;;;;;;;27.42;13.48;;;;;;;9.50;71.51;100500.56;5031205;28;20053;-81
2023/01/21 01:46:35;;;;;;;26.35;15.05;;;;;;;9.53;71.36;100497.63;5032000;28;20053;-82
2023/01/21 01:49:18;;;;;;;25.65;15.77;;;;;;;9.58;71.52;100495.44;5032368;28;20033;-83
2023/01/21 01:51:46;;;;;;;20.35;12.65;;;;;;;9.67;71.48;100502.75;5031861;28;20030;-82
2023/01/21 01:54:17;;;;;;;22.20;13.00;;;;;;;9.67;70.86;100500.06;5033877;28;20037;-80
2023/01/21 01:56:46;;;;;;;23.27;13.02;;;;;;;9.57;70.70;100482.13;5031655;28;20465;-83
2023/01/21 01:59:12;;;;;;;26.17;14.65;;;;;;;9.61;70.43;100497.00;5030731;28;20030;-81
2023/01/21 02:01:38;;;;;;;19.50;10.98;;;;;;;9.60;70.06;100498.84;5031239;28;20024;-83
2023/01/21 02:04:09;;;;;;;14.75;9.88;;;;;;;9.46;70.07;100479.44;5031345;28;20112;-81
2023/01/21 02:06:35;;;;;;;13.75;10.10;;;;;;;9.47;69.78;100482.00;5032974;28;20079;-82
2023/01/21 02:09:00;;;;;;;14.65;8.20;;;;;;;9.46;69.64;100474.06;5033017;28;20033;-81
2023/01/21 02:11:26;;;;;;;13.20;8.63;;;;;;;9.47;69.42;100483.84;5031381;28;20025;-81
2023/01/21 02:13:58;;;;;;;14.18;7.38;;;;;;;9.53;69.59;100486.91;5035755;28;20481;-81
2023/01/21 02:16:49;;;;;;;11.88;6.80;;;;;;;9.58;69.16;100495.44;5034282;28;20044;-81
2023/01/21 02:19:15;;;;;;;11.95;6.72;;;;;;;9.55;68.71;100501.03;4951319;29;20042;-82
2023/01/21 02:21:52;;;;;;;13.07;9.10;;;;;;;9.57;69.33;100507.13;4950206;29;20047;-82
2023/01/21 02:24:58;;;;;;;11.82;7.07;;;;;;;9.52;68.83;100509.34;4950293;29;20050;-83
2023/01/21 02:27:42;;;;;;;10.35;5.93;;;;;;;9.55;68.74;100525.19;4871247;29;20045;-82
2023/01/21 02:30:27;;;;;;;14.50;6.60;;;;;;;9.56;69.14;100516.19;4875024;29;20152;-81
2023/01/21 02:33:08;;;;;;;8.18;5.90;;;;;;;9.59;68.36;100518.63;4874313;29;20044;-82
2023/01/21 02:35:38;;;;;;;11.20;6.07;;;;;;;9.66;68.40;100519.81;4874426;29;20117;-81
2023/01/21 02:38:19;;;;;;;9.73;5.60;;;;;;;9.65;68.11;100511.91;4874996;29;20073;-81
2023/01/21 02:40:47;;;;;;;7.43;5.22;;;;;;;9.80;67.89;100527.66;4874442;29;20125;-80
2023/01/21 02:43:28;;;;;;;12.15;5.25;;;;;;;9.77;67.63;100519.00;4875958;29;20041;-82
2023/01/21 02:46:08;;;;;;;18.02;6.18;;;;;;;9.75;67.11;100515.59;4874152;29;20521;-82
2023/01/21 02:48:40;;;;;;;20.27;5.47;;;;;;;9.61;67.13;100505.06;4874482;29;20033;-81
2023/01/21 02:51:05;;;;;;;16.20;6.60;;;;;;;9.68;67.42;100514.34;4874663;29;20056;-80
2023/01/21 02:53:33;;;;;;;18.67;4.82;;;;;;;9.63;67.57;100514.69;4874859;29;20033;-80
2023/01/21 02:56:30;;;;;;;30.30;7.50;;;;;;;9.68;67.18;100506.28;4889900;29;20044;-81
2023/01/21 02:59:00;;;;;;;13.43;5.88;;;;;;;9.65;67.10;100518.16;4938972;28;20118;-81
2023/01/21 03:01:30;;;;;;;15.90;6.25;;;;;;;9.68;67.36;100531.31;4950043;28;20070;-81
2023/01/21 03:04:08;;;;;;;12.25;4.78;;;;;;;9.70;67.43;100529.38;4995268;28;20052;-81
2023/01/21 03:06:51;;;;;;;14.68;4.93;;;;;;;9.69;67.22;100530.31;5030791;28;20026;-81
2023/01/21 03:09:29;;;;;;;10.60;5.80;;;;;;;9.67;67.09;100521.56;5031907;28;20029;-80
2023/01/21 03:12:12;;;;;;;17.52;5.72;;;;;;;9.69;67.12;100524.97;5011357;28;20037;-82
2023/01/21 03:17:48;;;;;;;25.45;7.03;;;;;;;9.64;66.79;100524.47;5013111;28;20081;-81
2023/01/21 03:20:23;;;;;;;25.17;6.82;;;;;;;9.62;66.31;100513.00;5011207;28;20034;-81
2023/01/21 03:22:55;;;;;;;23.65;6.57;;;;;;;9.44;66.33;100501.03;5010168;28;20022;-81
2023/01/21 03:25:23;;;;;;;11.57;5.60;;;;;;;9.33;66.56;100501.00;5019002;28;20087;-82
2023/01/21 03:27:48;;;;;;;23.02;5.88;;;;;;;9.40;66.54;100512.13;5030000;28;20454;-81
2023/01/21 03:30:18;;;;;;;23.42;6.18;;;;;;;9.22;66.52;100498.31;5029999;28;20061;-81
2023/01/21 03:32:48;;;;;;;20.40;5.72;;;;;;;9.18;67.03;100515.63;5029417;28;20049;-81
2023/01/21 03:35:41;;;;;;;20.05;5.55;;;;;;;9.17;67.14;100527.34;5030069;28;20029;-83
2023/01/21 03:38:13;;;;;;;;;;;;;;;9.24;67.66;100515.16;5030187;28;20045;-82
2023/01/21 03:40:46;;;;;;;13.18;6.32;;;;;;;9.18;67.52;100518.31;5030626;28;19909;-83
2023/01/21 03:43:12;;;;;;;19.60;7.43;;;;;;;9.18;67.69;100518.31;5032879;28;20026;-82
2023/01/21 03:46:22;;;;;;;20.65;9.38;;;;;;;9.31;67.33;100516.38;5035592;28;20619;-82
2023/01/21 03:48:56;;;;;;;18.20;7.72;;;;;;;9.15;67.20;100529.28;4965173;28;20055;-85
2023/01/21 03:51:39;;;;;;;15.05;7.50;;;;;;;9.16;67.19;100552.47;4963559;28;20113;-82
2023/01/21 03:54:05;;;;;;;19.02;8.38;;;;;;;9.09;67.15;100548.53;4938410;29;20467;-81
2023/01/21 03:56:30;;;;;;;12.90;6.72;;;;;;;9.12;66.53;100545.59;4955833;28;20170;-82
2023/01/21 03:58:56;;;;;;;7.75;5.22;;;;;;;9.16;66.29;100555.16;4953550;29;20175;-80
2023/01/21 04:01:21;;;;;;;7.38;4.93;;;;;;;9.06;65.86;100546.09;4950924;29;20062;-81
2023/01/21 04:03:47;;;;;;;9.15;5.68;;;;;;;9.10;65.67;100563.66;4949230;29;20079;-81
2023/01/21 04:06:18;;;;;;;8.65;5.35;;;;;;;9.09;65.93;100564.63;4949705;29;20051;-82
2023/01/21 04:08:44;;;;;;;15.73;5.22;;;;;;;9.01;65.99;100572.41;4952239;28;20031;-81
2023/01/21 04:11:09;;;;;;;9.80;5.95;;;;;;;9.05;66.43;100577.41;4955278;29;20110;-81
2023/01/21 04:13:35;;;;;;;21.45;7.90;;;;;;;9.00;66.27;100562.63;4954067;28;20104;-81
2023/01/21 04:16:00;;;;;;;22.08;9.35;;;;;;;9.07;65.94;100563.91;4954695;28;20529;-85
2023/01/21 04:18:26;;;;;;;22.45;10.82;;;;;;;8.97;66.19;100565.56;4957378;28;20046;-84
2023/01/21 04:20:51;;;;;;;21.70;10.15;;;;;;;9.07;66.47;100580.00;4956867;28;20046;-81
2023/01/21 04:23:17;;;;;;;24.27;9.95;;;;;;;9.00;66.37;100578.72;4952803;28;20114;-82
2023/01/21 04:25:42;;;;;;;25.13;12.35;;;;;;;8.96;66.69;100577.28;5007148;28;20052;-81
2023/01/21 04:28:08;;;;;;;35.42;10.93;;;;;;;8.99;66.74;100577.03;5033014;28;20104;-83
2023/01/21 04:30:33;;;;;;;19.02;11.00;;;;;;;8.84;66.66;100568.31;5033790;28;20040;-82
2023/01/21 04:32:59;;;;;;;23.15;10.23;;;;;;;8.83;66.72;100577.34;5033108;28;20477;-83
2023/01/21 04:35:24;;;;;;;27.75;9.80;;;;;;;8.73;66.83;100582.53;5033238;28;20037;-83
2023/01/21 04:37:50;;;;;;;30.40;10.80;;;;;;;8.68;67.32;100579.31;5033060;28;20087;-81
2023/01/21 04:40:16;;;;;;;40.40;10.43;;;;;;;8.73;67.24;100590.56;5033003;28;20025;-79
2023/01/21 04:42:41;;;;;;;23.63;10.35;;;;;;;8.73;67.41;100593.25;5032892;28;20037;-80
2023/01/21 04:45:07;;;;;;;25.02;10.02;;;;;;;8.65;68.10;100601.00;5032868;28;20064;-82
2023/01/21 04:47:33;;;;;;;24.02;9.50;;;;;;;8.63;68.46;100616.34;4997432;28;20033;-80
2023/01/21 04:49:58;;;;;;;25.58;8.30;;;;;;;8.50;69.01;100607.47;5032385;28;20030;-80
2023/01/21 04:52:24;;;;;;;27.35;7.68;;;;;;;8.60;68.66;100608.53;5032767;28;20025;-82
2023/01/21 04:54:49;;;;;;;28.58;6.65;;;;;;;8.70;68.81;100622.97;5032330;28;20048;-80
2023/01/21 04:57:15;;;;;;;14.15;5.53;;;;;;;8.71;69.04;100616.63;5032762;28;20022;-82
2023/01/21 04:59:40;;;;;;;14.48;5.00;;;;;;;8.84;69.06;100621.09;5032235;28;20037;-81
2023/01/21 05:02:05;;;;;;;26.60;6.05;;;;;;;8.89;69.28;100630.53;5032581;28;20025;-82
2023/01/21 05:04:31;;;;;;;14.77;5.30;;;;;;;8.92;68.89;100624.94;5014470;28;20037;-85
2023/01/21 05:06:57;;;;;;;15.07;4.80;;;;;;;8.96;68.75;100620.19;5032107;28;20025;-84
2023/01/21 05:09:23;;;;;;;27.77;6.38;;;;;;;8.93;68.88;100607.00;5032620;28;20091;-81
2023/01/21 05:11:48;;;;;;;12.60;4.78;;;;;;;8.89;69.00;100613.56;5034770;28;20021;-84
2023/01/21 05:14:14;;;;;;;16.02;6.65;;;;;;;8.87;69.05;100631.63;5035123;28;20033;-87
2023/01/21 05:16:39;;;;;;;44.45;18.67;;;;;;;8.91;69.24;100622.34;5034250;28;20105;-82
2023/01/21 05:19:05;;;;;;;49.22;23.75;;;;;;;8.88;69.32;100631.47;5044923;28;20058;-85
2023/01/21 05:21:30;;;;;;;43.28;15.82;;;;;;;8.92;69.58;100641.03;5051034;28;20025;-86
2023/01/21 05:23:56;;;;;;;38.05;15.90;;;;;;;8.92;69.51;100632.13;5036363;28;20030;-85
2023/01/21 05:26:21;;;;;;;36.28;15.88;;;;;;;9.02;69.46;100633.97;5032455;28;20026;-85
2023/01/21 05:28:46;;;;;;;45.83;11.93;;;;;;;8.98;69.42;100619.09;5035011;28;20039;-88
2023/01/21 05:31:12;;;;;;;26.98;11.05;;;;;;;9.15;69.40;100641.97;5016653;28;20523;-81
2023/01/21 05:33:37;;;;;;;38.88;18.35;;;;;;;9.25;69.36;100648.34;5031929;28;20427;-85
2023/01/21 05:36:03;;;;;;;37.50;13.63;;;;;;;9.28;69.70;100642.75;5014961;28;20789;-83
2023/01/21 05:38:29;;;;;;;39.40;10.85;;;;;;;9.29;69.48;100639.94;5031810;28;20032;-86
2023/01/21 05:40:59;;;;;;;19.00;9.02;;;;;;;9.31;69.34;100637.16;5032766;28;20113;-83
2023/01/21 05:43:25;;;;;;;40.40;7.80;;;;;;;9.34;69.31;100642.28;5014340;28;20037;-82
2023/01/21 05:45:51;;;;;;;16.52;6.68;;;;;;;9.35;69.16;100638.66;5032372;28;20466;-85
2023/01/21 05:48:17;;;;;;;22.55;7.10;;;;;;;9.42;69.43;100652.47;5033128;28;20060;-82
2023/01/21 05:50:42;;;;;;;22.85;6.22;;;;;;;9.35;69.83;100644.00;5035595;28;20076;-88
2023/01/21 05:53:08;;;;;;;21.17;8.32;;;;;;;9.29;70.17;100650.69;5035328;28;20029;-89
2023/01/21 05:55:33;;;;;;;40.90;9.25;;;;;;;9.33;70.65;100661.22;5015913;28;20124;-88
2023/01/21 05:57:58;;;;;;;27.77;7.13;;;;;;;9.46;70.35;100662.84;5035466;28;20029;-88
2023/01/21 06:00:24;;;;;;;37.97;6.95;;;;;;;9.55;69.94;100674.69;5038294;28;20496;-89
2023/01/21 06:02:49;;;;;;;24.50;8.27;;;;;;;9.61;69.90;100677.78;5035496;28;20025;-88
2023/01/21 06:05:15;;;;;;;23.83;8.65;;;;;;;9.57;69.89;100673.59;5036010;28;20032;-88
2023/01/21 06:07:41;;;;;;;39.88;9.05;;;;;;;9.62;70.38;100681.31;5036627;28;20026;-89
2023/01/21 06:10:07;;;;;;;16.52;7.07;;;;;;;9.73;70.41;100681.34;5034079;28;20018;-86
2023/01/21 06:12:32;;;;;;;19.83;8.30;;;;;;;9.71;70.31;100683.28;5034604;28;20041;-87
2023/01/21 06:14:59;;;;;;;52.25;16.05;;;;;;;9.85;70.76;100686.63;5038861;28;20033;-86
2023/01/21 06:17:25;;;;;;;36.75;9.25;;;;;;;9.97;71.10;100687.50;5043201;28;20083;-84
2023/01/21 06:19:50;;;;;;;39.42;7.82;;;;;;;9.91;71.05;100671.03;5050667;28;20018;-85
2023/01/21 06:22:16;;;;;;;30.38;7.47;;;;;;;10.03;71.31;100672.75;5040202;28;20034;-85
2023/01/21 06:24:42;;;;;;;20.35;5.35;;;;;;;10.19;71.40;100684.00;5038124;28;20116;-92
2023/01/21 06:27:07;;;;;;;28.08;7.28;;;;;;;10.23;71.68;100674.75;5030549;28;20468;-87
2023/01/21 06:29:33;;;;;;;21.38;5.38;;;;;;;10.46;71.33;100691.75;5031396;28;20021;-83
2023/01/21 06:31:58;;;;;;;10.40;4.47;;;;;;;10.47;71.78;100691.59;5032038;28;20030;-87
2023/01/21 06:34:24;;;;;;;21.75;4.43;;;;;;;10.51;72.30;100701.16;5013501;28;20416;-86
2023/01/21 06:36:49;;;;;;;8.27;4.13;;;;;;;10.67;72.46;100706.16;5032393;28;20049;-85
2023/01/21 06:39:15;;;;;;;8.60;3.22;;;;;;;10.69;72.14;100702.38;5030304;28;20032;-86
2023/01/21 06:41:40;;;;;;;33.47;4.65;;;;;;;10.76;72.67;100708.09;5032477;28;20022;-86
2023/01/21 06:44:06;;;;;;;22.95;4.63;;;;;;;10.86;73.08;100714.44;5029112;28;20041;-88
2023/01/21 06:46:31;;;;;;;25.55;4.70;;;;;;;10.91;73.14;100715.78;5014056;28;20030;-89
2023/01/21 06:48:57;;;;;;;5.57;3.97;;;;;;;11.05;73.11;100705.72;5010944;28;20030;-79
2023/01/21 06:51:23;;;;;;;14.43;5.50;;;;;;;11.16;73.56;100724.56;5010454;28;20040;-79
2023/01/21 06:53:48;;;;;;;11.52;4.03;;;;;;;11.21;73.01;100711.56;5010437;28;20022;-78
2023/01/21 06:56:13;;;;;;;10.23;3.78;;;;;;;11.40;72.89;100727.91;5010574;28;20038;-79
2023/01/21 06:58:39;;;;;;;8.35;2.83;;;;;;;11.47;73.44;100712.91;5010470;28;20026;-79
2023/01/21 07:01:04;;;;;;;9.65;3.45;;;;;;;11.54;73.09;100719.50;5010231;28;20178;-81
2023/01/21 07:03:30;;;;;;;7.43;3.30;;;;;;;11.62;72.76;100717.00;4992472;28;20116;-79
2023/01/21 07:05:55;;;;;;;13.32;3.38;;;;;;;11.65;72.49;100727.53;5010076;28;20030;-80
2023/01/21 07:08:21;;;;;;;24.58;3.83;;;;;;;11.72;72.89;100739.56;5010128;28;20482;-82
2023/01/21 07:10:47;;;;;;;13.63;3.33;;;;;;;11.75;72.77;100723.13;5010287;28;20445;-82
2023/01/21 07:13:12;;;;;;;7.68;3.42;;;;;;;11.82;72.27;100724.31;5010892;28;20029;-81
2023/01/21 07:15:37;;;;;;;11.90;4.05;;;;;;;11.90;72.26;100727.22;5010691;28;20025;-79
2023/01/21 07:18:03;;;;;;;13.43;3.78;;;;;;;11.91;72.54;100734.31;5009892;28;20030;-79
2023/01/21 07:20:28;;;;;;;10.68;2.83;;;;;;;11.89;72.10;100725.53;5013050;28;20386;-79
2023/01/21 07:22:54;;;;;;;15.35;4.18;;;;;;;12.00;72.13;100733.53;5011216;28;20116;-79
2023/01/21 07:25:19;;;;;;;6.47;3.35;;;;;;;12.10;71.85;100733.59;4975707;28;20042;-79
2023/01/21 07:27:45;;;;;;;16.48;3.58;;;;;;;12.10;71.70;100727.34;4992376;28;20476;-79
2023/01/21 07:30:18;;;;;;;13.65;4.00;;;;;;;12.14;71.44;100728.81;5010115;28;20029;-80
2023/01/21 07:32:46;;;;;;;7.30;4.13;;;;;;;12.24;71.64;100735.09;5009381;28;20022;-78
2023/01/21 07:35:12;;;;;;;17.83;3.08;;;;;;;12.26;71.28;100728.56;5010007;28;20052;-79
2023/01/21 07:37:37;;;;;;;9.65;3.65;;;;;;;12.31;71.37;100728.19;5009514;28;20108;-79
2023/01/21 07:40:03;;;;;;;14.30;4.25;;;;;;;12.34;70.57;100723.38;5009704;28;20144;-80
2023/01/21 07:42:28;;;;;;;16.20;3.55;;;;;;;12.44;70.66;100723.44;5009880;28;20018;-79
2023/01/21 07:44:54;;;;;;;36.55;4.80;;;;;;;12.42;70.83;100731.66;5013162;28;20196;-81
2023/01/21 07:47:20;;;;;;;17.60;3.50;;;;;;;12.49;71.05;100729.28;5013555;28;20049;-79
2023/01/21 07:49:48;;;;;;;19.38;4.78;;;;;;;12.44;70.66;100720.75;5013779;28;20477;-79
2023/01/21 07:52:13;;;;;;;17.25;3.42;;;;;;;12.50;70.66;100734.56;5014011;28;20592;-80
2023/01/21 07:54:39;;;;;;;16.45;3.47;;;;;;;12.50;70.55;100731.00;5015038;28;20033;-79
2023/01/21 07:57:04;;;;;;;9.90;3.17;;;;;;;12.49;70.46;100745.47;5015738;28;20045;-82
2023/01/21 07:59:30;;;;;;;15.77;4.05;;;;;;;12.55;70.20;100744.91;5020865;28;20052;-84
2023/01/21 08:01:56;;;;;;;19.85;4.10;;;;;;;12.62;70.28;100743.41;5037613;28;20121;-82
2023/01/21 08:04:22;;;;;;;22.63;4.22;;;;;;;12.63;70.71;100742.38;5031893;28;20026;-80
2023/01/21 08:06:49;;;;;;;19.45;4.45;;;;;;;12.70;70.35;100738.19;5025060;28;20109;-80
2023/01/21 08:09:15;;;;;;;17.88;4.53;;;;;;;12.87;70.31;100748.31;5016889;28;20540;-79
2023/01/21 08:11:42;;;;;;;17.48;4.70;;;;;;;12.97;69.83;100745.66;5017128;28;20057;-80
2023/01/21 08:14:08;;;;;;;30.17;5.45;;;;;;;12.99;69.63;100752.66;5015396;28;20026;-80
2023/01/21 08:16:33;;;;;;;12.48;3.97;;;;;;;13.14;69.29;100749.59;5014248;28;20129;-79
2023/01/21 08:18:59;;;;;;;33.90;5.15;;;;;;;13.22;68.99;100738.94;5014440;28;20056;-81
2023/01/21 08:21:24;;;;;;;16.08;3.50;;;;;;;13.22;68.48;100733.53;5019084;28;20177;-81
2023/01/21 08:23:50;;;;;;;34.60;4.35;;;;;;;13.28;68.53;100746.47;5016193;28;20088;-80
2023/01/21 08:26:15;;;;;;;15.88;3.53;;;;;;;13.43;68.06;100742.38;5014143;28;20026;-80
2023/01/21 08:28:41;;;;;;;17.67;2.95;;;;;;;13.39;67.83;100739.09;5014137;28;20026;-79
2023/01/21 08:31:11;;;;;;;23.38;4.13;;;;;;;13.56;66.72;100742.97;5013066;28;20033;-81
2023/01/21 08:33:37;;;;;;;24.23;3.40;;;;;;;13.68;66.84;100755.34;5012660;28;20409;-82
2023/01/21 08:36:05;;;;;;;42.53;4.95;;;;;;;13.70;66.69;100739.84;5013122;28;20466;-81
2023/01/21 08:38:31;;;;;;;50.45;7.03;;;;;;;13.83;66.35;100743.13;5012658;28;20072;-80
2023/01/21 08:40:57;;;;;;;8.52;2.88;;;;;;;13.76;65.91;100739.25;5013103;28;20221;-81
2023/01/21 08:43:23;;;;;;;17.70;3.85;;;;;;;13.86;65.85;100750.09;5013163;28;20498;-81
2023/01/21 08:45:49;;;;;;;23.95;3.78;;;;;;;14.17;65.03;100760.59;5012747;28;20049;-81
2023/01/21 08:48:14;;;;;;;23.77;5.63;;;;;;;14.09;63.88;100738.00;5013084;28;20560;-82
2023/01/21 08:50:41;;;;;;;8.98;2.83;;;;;;;14.17;63.81;100749.78;5012771;28;20913;-82
2023/01/21 08:53:09;;;;;;;21.88;5.03;;;;;;;14.34;63.94;100750.06;5012751;28;20030;-80
2023/01/21 08:55:35;;;;;;;22.88;4.63;;;;;;;14.39;63.75;100750.47;4994946;28;20036;-79
2023/01/21 08:58:01;;;;;;;16.45;4.72;;;;;;;14.42;63.24;100747.47;5012267;28;20514;-78
2023/01/21 09:00:26;;;;;;;15.48;3.60;;;;;;;14.41;63.29;100745.75;5012410;28;20077;-82
2023/01/21 09:02:52;;;;;;;27.23;4.05;;;;;;;14.42;63.21;100747.47;5012837;28;20060;-79
2023/01/21 09:05:18;;;;;;;50.38;6.30;;;;;;;14.56;63.84;100741.59;5012345;28;20113;-78
2023/01/21 09:07:45;;;;;;;19.10;3.47;;;;;;;14.69;62.74;100742.97;4995408;28;20077;-81
2023/01/21 09:10:11;;;;;;;23.85;5.22;;;;;;;14.85;62.55;100744.19;5012535;28;20116;-81
2023/01/21 09:12:39;;;;;;;32.83;5.43;;;;;;;14.96;62.50;100736.72;5012318;28;20084;-80
2023/01/21 09:15:05;;;;;;;30.80;4.18;;;;;;;14.97;62.51;100749.28;5012975;28;20038;-79
2023/01/21 09:17:30;;;;;;;19.80;3.72;;;;;;;14.87;63.01;100732.22;5013222;28;20061;-79
2023/01/21 09:19:56;;;;;;;17.48;4.85;;;;;;;14.82;63.96;100742.66;5012743;28;20029;-80
2023/01/21 09:22:21;;;;;;;24.67;3.90;;;;;;;14.75;64.19;100733.41;5019987;28;20040;-80
2023/01/21 09:24:47;;;;;;;20.58;6.28;;;;;;;15.01;63.57;100744.41;5021098;28;20448;-80
2023/01/21 09:27:12;;;;;;;56.80;7.63;;;;;;;15.03;63.57;100727.00;5014218;28;20058;-80
2023/01/21 09:29:37;;;;;;;17.00;5.53;;;;;;;14.93;63.62;100734.31;5011567;28;20037;-79
2023/01/21 09:32:04;;;;;;;39.15;5.70;;;;;;;14.73;64.27;100719.19;5011683;28;20481;-82
2023/01/21 09:34:30;;;;;;;47.40;6.25;;;;;;;14.65;64.83;100727.16;4994360;28;20345;-82
2023/01/21 09:36:55;;;;;;;41.33;7.03;;;;;;;14.58;64.84;100726.06;5011923;28;20310;-80
2023/01/21 09:39:21;;;;;;;22.05;4.35;;;;;;;14.41;65.42;100737.66;5011703;28;20030;-80
2023/01/21 09:41:55;;;;;;;15.90;4.70;;;;;;;14.18;66.80;100739.81;5012255;28;20038;-79
2023/01/21 09:44:35;;;;;;;29.65;5.40;;;;;;;14.19;67.25;100747.78;4994358;28;20045;-80
2023/01/21 09:47:13;;;;;;;27.20;5.05;;;;;;;14.11;67.81;100734.13;5012066;28;20092;-80
2023/01/21 09:49:42;;;;;;;30.17;4.85;;;;;;;14.19;67.64;100736.97;5012651;28;20473;-81
2023/01/21 09:52:23;;;;;;;28.00;4.88;;;;;;;14.29;67.34;100736.09;5012620;28;20029;-81
2023/01/21 09:54:49;;;;;;;63.78;9.05;;;;;;;14.44;67.59;100726.53;4994470;28;20100;-81
2023/01/21 09:57:37;;;;;;;37.72;5.55;;;;;;;14.44;67.18;100692.22;5011741;28;20034;-79
2023/01/21 10:00:12;;;;;;;33.47;6.05;;;;;;;14.71;66.58;100713.03;5011562;28;20033;-80
2023/01/21 10:02:53;;;;;;;37.70;7.18;;;;;;;14.70;66.25;100704.09;5011171;28;20022;-81
2023/01/21 10:05:24;;;;;;;33.60;5.45;;;;;;;14.77;66.39;100711.59;5010772;28;20030;-80
2023/01/21 10:08:19;;;;;;;54.25;6.93;;;;;;;14.79;66.46;100713.16;5011135;28;20065;-82
2023/01/21 10:10:55;;;;;;;47.15;6.82;;;;;;;14.64;67.37;100714.66;5011733;28;20120;-80
2023/01/21 10:13:21;;;;;;;25.95;5.40;;;;;;;14.48;68.02;100722.53;5012202;28;20129;-80
2023/01/21 10:15:50;;;;;;;29.92;5.50;;;;;;;14.64;67.85;100715.50;5012560;28;20049;-85
2023/01/21 10:18:27;;;;;;;36.90;5.72;;;;;;;14.84;67.57;100716.25;5011250;28;20021;-79
2023/01/21 10:21:03;;;;;;;31.45;4.90;;;;;;;14.95;66.12;100702.50;5011537;28;20115;-81
2023/01/21 10:23:41;;;;;;;34.63;5.45;;;;;;;15.06;66.08;100705.03;5011696;28;20037;-81
2023/01/21 10:26:11;;;;;;;41.70;6.38;;;;;;;15.04;65.74;100707.06;5011714;28;20042;-80
2023/01/21 10:28:49;;;;;;;37.63;7.22;;;;;;;14.95;65.34;100697.09;5011045;28;20036;-81
2023/01/21 10:31:29;;;;;;;21.08;5.80;;;;;;;15.03;65.65;100705.34;5010685;28;20095;-81
2023/01/21 10:33:55;;;;;;;32.35;5.18;;;;;;;15.20;65.19;100701.78;5010730;28;20057;-79
2023/01/21 10:36:38;;;;;;;31.73;6.03;;;;;;;15.23;65.29;100701.50;5010257;28;20030;-82
2023/01/21 10:39:29;;;;;;;36.53;5.68;;;;;;;15.27;64.67;100692.06;5010933;28;20026;-79
2023/01/21 10:42:33;;;;;;;28.38;5.85;;;;;;;15.21;65.07;100695.38;5010593;28;20049;-80
2023/01/21 10:45:23;;;;;;;15.38;4.80;;;;;;;15.32;64.54;100688.03;4930704;29;20194;-79
2023/01/21 10:48:09;;;;;;;26.35;7.00;;;;;;;15.29;64.32;100685.63;4931194;29;20126;-83
2023/01/21 10:50:53;;;;;;;22.23;4.72;;;;;;;15.31;63.79;100680.91;4930539;29;20595;-79
2023/01/21 10:53:37;;;;;;;27.50;4.28;;;;;;;15.09;64.68;100674.06;4930301;29;20023;-79
2023/01/21 10:56:17;;;;;;;28.50;4.90;;;;;;;15.11;64.88;100677.47;4930249;29;20512;-80
2023/01/21 10:58:51;;;;;;;30.50;4.68;;;;;;;15.08;64.81;100669.66;4930491;29;20042;-80
2023/01/21 11:01:29;;;;;;;41.35;7.07;;;;;;;15.29;64.69;100683.75;4930136;29;20051;-81
2023/01/21 11:03:58;;;;;;;27.50;6.55;;;;;;;14.90;66.52;100698.56;4930273;29;20032;-80
2023/01/21 11:06:27;;;;;;;24.77;6.32;;;;;;;15.06;66.02;100677.94;4931024;29;20099;-79
2023/01/21 11:09:01;;;;;;;28.00;5.25;;;;;;;15.16;66.05;100677.88;4930863;29;20040;-80
2023/01/21 11:11:30;;;;;;;32.30;6.35;;;;;;;15.11;66.09;100685.59;4930279;29;20103;-81
2023/01/21 11:13:56;;;;;;;39.88;5.82;;;;;;;14.99;66.83;100671.41;4930338;29;21106;-79
2023/01/21 11:16:54;;;;;;;35.83;5.95;;;;;;;15.18;66.03;100679.44;4930308;29;20086;-81
2023/01/21 11:19:25;;;;;;;43.08;6.13;;;;;;;15.30;65.40;100671.91;4892209;29;20041;-80
2023/01/21 11:21:56;;;;;;;29.40;5.03;;;;;;;15.26;64.34;100674.09;4920197;29;20122;-79
2023/01/21 11:24:23;;;;;;;20.42;5.55;;;;;;;14.98;65.68;100675.13;4929986;29;20065;-79
2023/01/21 11:26:51;;;;;;;36.80;5.68;;;;;;;15.17;65.85;100685.84;4930188;29;20047;-81
2023/01/21 11:29:19;;;;;;;32.28;5.50;;;;;;;15.24;65.75;100677.97;4931377;29;20130;-78
2023/01/21 11:31:50;;;;;;;30.35;6.85;;;;;;;15.39;65.64;100683.69;4929971;29;20043;-80
2023/01/21 11:34:18;;;;;;;41.83;6.80;;;;;;;15.50;65.59;100680.81;4929671;29;20042;-80